createdAt,value
2022-10-09T00:01:21.843Z,1.97
2022-10-09T00:03:52.352Z,1.53
2022-10-09T00:06:22.988Z,1.47
2022-10-09T00:08:52.207Z,1.70
2022-10-09T00:11:24.473Z,2.40
2022-10-09T00:13:54.045Z,1.73
2022-10-09T00:16:23.092Z,1.60
2022-10-09T00:18:51.993Z,2.00
2022-10-09T00:21:22.637Z,2.17
2022-10-09T00:23:51.671Z,2.00
2022-10-09T00:26:21.848Z,1.83
2022-10-09T00:28:50.849Z,2.00
2022-10-09T00:31:19.956Z,2.20
2022-10-09T00:33:48.508Z,2.03
2022-10-09T00:36:19.347Z,1.83
2022-10-09T00:38:47.750Z,2.27
2022-10-09T00:41:18.062Z,1.90
2022-10-09T00:43:50.127Z,2.10
2022-10-09T00:46:29.324Z,1.57
2022-10-09T00:49:03.543Z,1.97
2022-10-09T00:51:33.187Z,3.33
2022-10-09T00:54:03.164Z,3.40
2022-10-09T00:56:31.368Z,2.70
2022-10-09T00:59:01.256Z,1.47
2022-10-09T01:01:29.388Z,1.80
2022-10-09T01:03:57.532Z,1.70
2022-10-09T01:06:38.263Z,1.90
2022-10-09T01:09:13.719Z,2.67
2022-10-09T01:11:50.287Z,1.50
2022-10-09T01:14:27.167Z,1.63
2022-10-09T01:17:02.839Z,2.27
2022-10-09T01:19:45.730Z,1.60
2022-10-09T01:22:26.070Z,2.00
2022-10-09T01:24:57.750Z,2.60
2022-10-09T01:27:29.097Z,2.93
2022-10-09T01:30:00.356Z,2.87
2022-10-09T01:32:32.976Z,2.57
2022-10-09T01:35:02.715Z,3.00
2022-10-09T01:37:32.268Z,2.53
2022-10-09T01:40:01.372Z,2.70
2022-10-09T01:42:33.141Z,3.03
2022-10-09T01:45:01.288Z,3.47
2022-10-09T01:47:29.583Z,2.17
2022-10-09T01:50:04.908Z,2.20
2022-10-09T01:52:41.628Z,2.00
2022-10-09T01:55:21.588Z,1.70
2022-10-09T01:57:57.101Z,1.50
2022-10-09T02:00:25.721Z,1.97
2022-10-09T02:02:56.239Z,1.73
2022-10-09T02:05:29.014Z,1.73
2022-10-09T02:07:59.467Z,2.80
2022-10-09T02:10:27.800Z,2.00
2022-10-09T02:12:59.050Z,2.70
2022-10-09T02:15:32.571Z,3.10
2022-10-09T02:18:06.145Z,2.33
2022-10-09T02:20:37.272Z,2.43
2022-10-09T02:23:08.454Z,1.80
2022-10-09T02:25:37.148Z,2.30
2022-10-09T02:28:07.496Z,2.20
2022-10-09T02:30:43.463Z,2.37
2022-10-09T02:33:11.512Z,2.67
2022-10-09T02:35:40.613Z,2.40
2022-10-09T02:38:08.910Z,2.83
2022-10-09T02:40:36.976Z,2.40
2022-10-09T02:43:06.576Z,3.30
2022-10-09T02:45:34.806Z,2.80
2022-10-09T02:48:02.919Z,3.30
2022-10-09T02:50:31.027Z,3.27
2022-10-09T02:52:59.239Z,3.83
2022-10-09T02:55:27.368Z,2.83
2022-10-09T02:57:55.443Z,2.83
2022-10-09T03:00:25.036Z,2.80
2022-10-09T03:02:53.335Z,2.87
2022-10-09T03:05:21.927Z,3.20
2022-10-09T03:07:53.119Z,3.53
2022-10-09T03:10:21.891Z,3.30
2022-10-09T03:12:50.457Z,3.80
2022-10-09T03:15:18.774Z,3.73
2022-10-09T03:17:48.303Z,6.03
2022-10-09T03:20:16.532Z,4.47
2022-10-09T03:22:44.607Z,5.17
2022-10-09T03:25:13.132Z,6.27
2022-10-09T03:27:41.364Z,5.73
2022-10-09T03:30:10.899Z,6.40
2022-10-09T03:32:39.052Z,5.50
2022-10-09T03:35:09.304Z,5.33
2022-10-09T03:37:37.518Z,4.90
2022-10-09T03:40:06.364Z,4.90
2022-10-09T03:42:34.641Z,4.80
2022-10-09T03:45:05.752Z,4.83
2022-10-09T03:47:34.043Z,4.93
2022-10-09T03:50:02.136Z,4.10
2022-10-09T03:52:31.583Z,4.20
2022-10-09T03:54:59.696Z,3.73
2022-10-09T03:57:27.793Z,3.60
2022-10-09T03:59:55.883Z,3.80
2022-10-09T04:02:23.999Z,4.40
2022-10-09T04:04:52.219Z,5.10
2022-10-09T04:07:20.335Z,4.43
2022-10-09T04:09:49.913Z,5.20
2022-10-09T04:12:18.639Z,4.97
2022-10-09T04:14:46.770Z,4.47
2022-10-09T04:17:15.000Z,5.60
2022-10-09T04:19:43.352Z,5.70
2022-10-09T04:22:11.690Z,4.87
2022-10-09T04:24:39.889Z,5.20
2022-10-09T04:27:09.463Z,5.07
2022-10-09T04:29:37.575Z,4.57
2022-10-09T04:32:05.752Z,3.77
2022-10-09T04:34:34.102Z,4.47
2022-10-09T04:37:02.432Z,4.90
2022-10-09T04:39:30.833Z,4.23
2022-10-09T04:41:58.958Z,4.00
2022-10-09T04:44:28.401Z,3.90
2022-10-09T04:46:56.672Z,3.60
2022-10-09T04:49:24.752Z,3.43
2022-10-09T04:51:52.878Z,3.37
2022-10-09T04:54:21.036Z,4.37
2022-10-09T04:56:49.079Z,3.83
2022-10-09T04:59:17.171Z,4.77
2022-10-09T05:01:47.011Z,4.80
2022-10-09T05:04:15.128Z,3.87
2022-10-09T05:06:43.271Z,4.30
2022-10-09T05:09:11.392Z,4.87
2022-10-09T05:11:42.636Z,4.97
2022-10-09T05:14:11.718Z,4.47
2022-10-09T05:17:00.978Z,4.70
2022-10-09T05:19:29.551Z,5.27
2022-10-09T05:21:57.945Z,5.40
2022-10-09T05:24:26.039Z,5.00
2022-10-09T05:26:54.170Z,4.93
2022-10-09T05:29:22.341Z,5.07
2022-10-09T05:31:50.557Z,5.33
2022-10-09T05:34:20.060Z,6.93
2022-10-09T05:36:49.676Z,6.23
2022-10-09T05:39:17.909Z,6.10
2022-10-09T05:41:45.954Z,6.30
2022-10-09T05:44:14.110Z,6.30
2022-10-09T05:46:42.239Z,5.30
2022-10-09T05:49:12.236Z,5.40
2022-10-09T05:51:43.648Z,5.73
2022-10-09T05:54:16.053Z,4.80
2022-10-09T05:56:45.184Z,5.67
2022-10-09T05:59:15.603Z,6.40
2022-10-09T06:01:46.707Z,5.63
2022-10-09T06:04:16.672Z,5.60
2022-10-09T06:06:47.520Z,5.17
2022-10-09T06:09:18.134Z,4.90
2022-10-09T06:11:46.620Z,5.30
2022-10-09T06:14:14.924Z,5.23
2022-10-09T06:16:44.781Z,5.93
2022-10-09T06:19:14.532Z,5.07
2022-10-09T06:21:43.338Z,5.57
2022-10-09T06:24:18.389Z,5.70
2022-10-09T06:26:46.472Z,5.80
2022-10-09T06:29:14.551Z,5.60
2022-10-09T06:31:42.697Z,5.37
2022-10-09T06:34:11.994Z,5.67
2022-10-09T06:36:40.067Z,6.03
2022-10-09T06:39:09.467Z,7.33
2022-10-09T06:41:39.228Z,5.60
2022-10-09T06:44:27.646Z,5.50
2022-10-09T06:46:55.670Z,5.53
2022-10-09T06:49:23.792Z,5.50
2022-10-09T06:51:51.880Z,6.40
2022-10-09T06:54:19.985Z,7.23
2022-10-09T06:56:49.526Z,6.47
2022-10-09T06:59:17.863Z,7.07
2022-10-09T07:01:46.133Z,6.40
2022-10-09T07:04:17.686Z,6.43
2022-10-09T07:06:47.832Z,7.17
2022-10-09T07:09:17.089Z,7.27
2022-10-09T07:11:46.916Z,8.47
2022-10-09T07:14:17.195Z,7.93
2022-10-09T07:16:47.015Z,8.93
2022-10-09T07:19:17.591Z,8.70
2022-10-09T07:21:47.749Z,9.20
2022-10-09T07:24:16.124Z,9.17
2022-10-09T07:26:45.978Z,7.53
2022-10-09T07:29:17.799Z,10.00
2022-10-09T07:31:46.262Z,8.80
2022-10-09T07:34:15.028Z,8.80
2022-10-09T07:36:43.418Z,9.30
2022-10-09T07:39:11.698Z,9.10
2022-10-09T07:41:39.772Z,9.40
2022-10-09T07:44:07.915Z,8.90
2022-10-09T07:46:37.499Z,11.07
2022-10-09T07:49:06.135Z,10.50
2022-10-09T07:51:34.448Z,10.70
2022-10-09T07:54:02.963Z,12.03
2022-10-09T07:56:33.671Z,11.50
2022-10-09T07:59:03.922Z,11.83
2022-10-09T08:01:34.081Z,10.63
2022-10-09T08:04:04.235Z,11.67
2022-10-09T08:06:33.149Z,12.17
2022-10-09T08:09:03.614Z,11.27
2022-10-09T08:11:32.200Z,13.67
2022-10-09T08:14:00.905Z,13.13
2022-10-09T08:16:29.592Z,12.90
2022-10-09T08:18:59.427Z,15.07
2022-10-09T08:21:29.168Z,13.80
2022-10-09T08:23:59.322Z,14.77
2022-10-09T08:26:29.857Z,14.93
2022-10-09T08:28:59.831Z,16.03
2022-10-09T08:31:29.560Z,16.00
2022-10-09T08:33:59.712Z,14.90
2022-10-09T08:36:29.491Z,14.87
2022-10-09T08:38:57.587Z,15.03
2022-10-09T08:41:39.714Z,16.20
2022-10-09T08:44:14.373Z,15.40
2022-10-09T08:46:52.956Z,16.80
2022-10-09T08:49:26.326Z,17.13
2022-10-09T08:51:57.165Z,16.20
2022-10-09T08:54:32.601Z,14.80
2022-10-09T08:57:05.587Z,15.17
2022-10-09T08:59:33.857Z,14.53
2022-10-09T09:02:14.892Z,14.13
2022-10-09T09:04:56.627Z,14.10
2022-10-09T09:07:33.455Z,14.50
2022-10-09T09:10:07.301Z,11.93
2022-10-09T09:12:44.991Z,13.47
2022-10-09T09:15:32.829Z,12.33
2022-10-09T09:18:16.011Z,12.37
2022-10-09T09:20:52.900Z,11.80
2022-10-09T09:23:28.012Z,11.83
2022-10-09T09:25:56.862Z,11.87
2022-10-09T09:28:29.779Z,12.10
2022-10-09T09:31:01.497Z,11.67
2022-10-09T09:33:43.633Z,11.47
2022-10-09T09:36:22.048Z,9.77
2022-10-09T09:41:42.340Z,9.47
2022-10-09T09:44:12.527Z,9.90
2022-10-09T09:46:42.932Z,8.80
2022-10-09T09:49:19.662Z,9.00
2022-10-09T09:51:49.775Z,8.70
2022-10-09T09:54:23.659Z,7.77
2022-10-09T09:57:12.020Z,7.20
2022-10-09T09:59:44.168Z,5.63
2022-10-09T10:02:16.081Z,5.83
2022-10-09T10:04:52.536Z,4.90
2022-10-09T10:07:34.658Z,4.90
2022-10-09T10:10:06.418Z,5.37
2022-10-09T10:12:34.822Z,4.27
2022-10-09T10:15:03.320Z,4.20
2022-10-09T10:17:33.625Z,3.87
2022-10-09T10:20:07.389Z,4.70
2022-10-09T10:22:36.845Z,4.27
2022-10-09T10:25:13.956Z,4.50
2022-10-09T10:27:47.233Z,4.20
2022-10-09T10:30:18.567Z,4.27
2022-10-09T10:32:54.983Z,3.77
2022-10-09T10:35:27.076Z,4.17
2022-10-09T10:38:02.901Z,4.00
2022-10-09T10:40:37.693Z,4.20
2022-10-09T10:43:16.333Z,4.20
2022-10-09T10:45:56.179Z,3.90
2022-10-09T10:48:27.185Z,3.80
2022-10-09T10:51:04.612Z,3.60
2022-10-09T10:53:43.111Z,3.10
2022-10-09T10:56:20.728Z,3.10
2022-10-09T10:58:57.203Z,3.00
2022-10-09T11:01:36.337Z,2.97
2022-10-09T11:04:28.630Z,2.83
2022-10-09T11:07:06.451Z,3.97
2022-10-09T11:09:44.439Z,3.60
2022-10-09T11:12:43.401Z,3.60
2022-10-09T11:15:21.263Z,2.67
2022-10-09T11:17:58.792Z,3.67
2022-10-09T11:21:13.791Z,3.40
2022-10-09T11:23:56.141Z,2.90
2022-10-09T11:26:33.054Z,2.53
2022-10-09T11:29:07.884Z,2.67
2022-10-09T11:31:40.783Z,2.83
2022-10-09T11:34:15.816Z,3.07
2022-10-09T11:36:46.586Z,2.30
2022-10-09T11:39:18.287Z,2.70
2022-10-09T11:41:48.528Z,2.20
2022-10-09T11:44:50.405Z,2.33
2022-10-09T11:47:23.105Z,3.27
2022-10-09T11:50:08.139Z,2.40
2022-10-09T11:52:45.555Z,2.63
2022-10-09T11:55:23.727Z,2.87
2022-10-09T11:57:52.564Z,3.13
2022-10-09T12:00:32.575Z,2.20
2022-10-09T12:03:03.530Z,2.40
2022-10-09T12:05:40.211Z,2.50
2022-10-09T12:08:15.405Z,2.60
2022-10-09T12:10:52.081Z,2.77
2022-10-09T12:13:42.221Z,2.17
2022-10-09T12:16:28.042Z,3.17
2022-10-09T12:18:56.772Z,2.13
2022-10-09T12:21:27.060Z,2.37
2022-10-09T12:23:57.761Z,2.30
2022-10-09T12:26:26.811Z,2.67
2022-10-09T12:28:57.919Z,2.10
2022-10-09T12:31:31.133Z,2.43
2022-10-09T12:34:04.615Z,2.73
2022-10-09T12:36:33.621Z,2.50
2022-10-09T12:39:14.660Z,2.53
2022-10-09T12:41:46.151Z,2.53
2022-10-09T12:44:25.051Z,2.80
2022-10-09T12:46:55.706Z,3.40
2022-10-09T12:49:26.581Z,2.83
2022-10-09T12:51:57.579Z,2.60
2022-10-09T12:54:26.676Z,2.50
2022-10-09T12:56:57.803Z,2.50
2022-10-09T12:59:28.488Z,2.80
2022-10-09T13:02:00.109Z,2.10
2022-10-09T13:04:31.581Z,2.53
2022-10-09T13:07:01.168Z,2.10
2022-10-09T13:09:34.043Z,2.73
2022-10-09T13:12:07.660Z,2.20
2022-10-09T13:14:37.890Z,2.43
2022-10-09T13:17:07.671Z,2.20
2022-10-09T13:19:35.972Z,2.33
2022-10-09T13:22:20.741Z,2.30
2022-10-09T13:24:51.364Z,2.57
2022-10-09T13:27:20.472Z,2.40
2022-10-09T13:29:49.240Z,2.60
2022-10-09T13:32:20.148Z,2.53
2022-10-09T13:34:48.410Z,2.23
2022-10-09T13:37:20.132Z,2.40
2022-10-09T13:39:48.539Z,2.40
2022-10-09T13:42:17.669Z,2.50
2022-10-09T13:44:46.050Z,2.70
2022-10-09T13:47:14.512Z,2.37
2022-10-09T13:49:44.267Z,2.60
2022-10-09T13:52:12.418Z,1.80
2022-10-09T13:54:40.617Z,2.20
2022-10-09T13:57:09.095Z,2.00
2022-10-09T13:59:37.973Z,3.50
2022-10-09T14:02:06.196Z,2.40
2022-10-09T14:04:34.543Z,2.20
2022-10-09T14:07:04.400Z,1.80
2022-10-09T14:09:32.535Z,2.33
2022-10-09T14:12:00.729Z,2.07
2022-10-09T14:14:28.962Z,2.33
2022-10-09T14:16:57.232Z,2.13
2022-10-09T14:19:27.807Z,2.23
2022-10-09T14:21:56.091Z,2.00
2022-10-09T14:24:26.528Z,1.90
2022-10-09T14:26:54.856Z,2.00
2022-10-09T14:29:23.019Z,2.37
2022-10-09T14:31:51.821Z,2.00
2022-10-09T14:34:20.138Z,1.70
2022-10-09T14:36:48.851Z,1.80
2022-10-09T14:39:17.435Z,1.80
2022-10-09T14:41:47.062Z,1.97
2022-10-09T14:44:15.197Z,1.50
2022-10-09T14:46:43.551Z,1.80
2022-10-09T14:49:12.504Z,1.70
2022-10-09T14:51:41.880Z,1.77
2022-10-09T14:54:12.211Z,1.80
2022-10-09T14:56:40.771Z,1.20
2022-10-09T14:59:10.296Z,1.47
2022-10-09T15:01:38.542Z,1.60
2022-10-09T15:04:07.478Z,1.30
2022-10-09T15:06:35.811Z,2.13
2022-10-09T15:09:06.249Z,1.37
2022-10-09T15:11:36.037Z,1.57
2022-10-09T15:14:05.108Z,1.97
2022-10-09T15:16:35.045Z,1.73
2022-10-09T15:19:04.623Z,3.87
2022-10-09T15:21:34.611Z,1.43
2022-10-09T15:24:04.550Z,1.00
2022-10-09T15:26:36.639Z,1.90
2022-10-09T15:29:06.591Z,1.30
2022-10-09T15:31:38.117Z,1.37
2022-10-09T15:34:07.736Z,1.50
2022-10-09T15:36:37.634Z,1.70
2022-10-09T15:39:07.460Z,2.07
2022-10-09T15:41:37.972Z,1.40
2022-10-09T15:44:08.586Z,1.30
2022-10-09T15:46:38.154Z,2.00
2022-10-09T15:49:07.981Z,1.40
2022-10-09T15:51:36.801Z,1.10
2022-10-09T15:54:06.178Z,1.50
2022-10-09T15:56:39.485Z,1.40
2022-10-09T15:59:08.756Z,1.30
2022-10-09T16:01:38.591Z,1.47
2022-10-09T16:04:06.897Z,1.80
2022-10-09T16:06:35.326Z,1.67
2022-10-09T16:09:04.738Z,1.57
2022-10-09T16:11:34.577Z,1.77
2022-10-09T16:14:02.809Z,1.67
2022-10-09T16:16:31.008Z,1.80
2022-10-09T16:19:01.504Z,1.60
2022-10-09T16:21:30.612Z,1.80
2022-10-09T16:23:59.789Z,1.60
2022-10-09T16:26:29.232Z,1.43
2022-10-09T16:28:57.588Z,1.37
2022-10-09T16:31:28.071Z,1.60
2022-10-09T16:33:56.371Z,1.37
2022-10-09T16:36:26.031Z,1.50
2022-10-09T16:38:54.576Z,1.60
2022-10-09T16:41:24.173Z,1.93
2022-10-09T16:43:54.372Z,1.53
2022-10-09T16:46:24.529Z,1.43
2022-10-09T16:48:54.321Z,1.50
2022-10-09T16:51:26.646Z,1.53
2022-10-09T16:53:56.641Z,1.57
2022-10-09T16:56:27.480Z,1.43
2022-10-09T16:58:57.012Z,1.53
2022-10-09T17:01:25.689Z,1.47
2022-10-09T17:03:55.340Z,1.37
2022-10-09T17:06:24.936Z,3.07
2022-10-09T17:08:54.604Z,1.83
2022-10-09T17:11:23.579Z,5.20
2022-10-09T17:13:52.157Z,7.13
2022-10-09T17:16:22.720Z,5.90
2022-10-09T17:18:51.207Z,5.50
2022-10-09T17:21:19.818Z,5.10
2022-10-09T17:23:53.450Z,5.37
2022-10-09T17:26:23.100Z,5.07
2022-10-09T17:28:52.002Z,4.67
2022-10-09T17:31:22.939Z,5.50
2022-10-09T17:33:55.051Z,5.67
2022-10-09T17:36:26.017Z,5.57
2022-10-09T17:38:56.080Z,5.97
2022-10-09T17:41:26.865Z,7.77
2022-10-09T17:43:56.803Z,10.10
2022-10-09T17:46:26.382Z,10.13
2022-10-09T17:48:56.784Z,16.00
2022-10-09T17:51:26.716Z,7.83
2022-10-09T17:53:59.252Z,10.67
2022-10-09T17:56:27.537Z,13.97
2022-10-09T17:58:56.888Z,11.60
2022-10-09T18:01:25.234Z,11.00
2022-10-09T18:03:53.543Z,7.90
2022-10-09T18:06:24.129Z,4.67
2022-10-09T18:08:54.060Z,4.67
2022-10-09T18:11:25.242Z,2.40
2022-10-09T18:13:53.665Z,3.10
2022-10-09T18:16:25.265Z,3.40
2022-10-09T18:18:53.444Z,3.70
2022-10-09T18:21:21.584Z,3.80
2022-10-09T18:23:50.026Z,4.40
2022-10-09T18:26:21.071Z,3.07
2022-10-09T18:28:50.647Z,3.30
2022-10-09T18:31:20.252Z,2.40
2022-10-09T18:33:48.987Z,2.10
2022-10-09T18:36:19.707Z,2.70
2022-10-09T18:38:49.663Z,2.63
2022-10-09T18:41:18.783Z,2.10
2022-10-09T18:43:47.471Z,2.57
2022-10-09T18:46:18.813Z,2.70
2022-10-09T18:48:47.603Z,2.57
2022-10-09T18:51:18.612Z,2.93
2022-10-09T18:53:50.204Z,4.10
2022-10-09T18:56:20.633Z,5.73
2022-10-09T18:58:50.692Z,4.17
2022-10-09T19:01:20.708Z,2.87
2022-10-09T19:03:50.362Z,3.10
2022-10-09T19:06:18.874Z,2.63
2022-10-09T19:08:47.490Z,2.43
2022-10-09T19:11:15.649Z,2.60
2022-10-09T19:13:44.702Z,2.13
2022-10-09T19:16:13.064Z,2.10
2022-10-09T19:18:42.650Z,2.50
2022-10-09T19:21:14.186Z,3.77
2022-10-09T19:23:44.020Z,2.67
2022-10-09T19:26:13.600Z,4.23
2022-10-09T19:28:42.099Z,3.57
2022-10-09T19:31:11.661Z,3.13
2022-10-09T19:33:43.059Z,2.30
2022-10-09T19:36:15.123Z,2.60
2022-10-09T19:38:43.572Z,3.07
2022-10-09T19:41:14.092Z,2.53
2022-10-09T19:43:42.841Z,2.63
2022-10-09T19:46:14.705Z,2.70
2022-10-09T19:48:42.768Z,3.33
2022-10-09T19:51:14.351Z,3.43
2022-10-09T19:53:43.539Z,3.10
2022-10-09T19:56:12.516Z,2.97
2022-10-09T19:58:41.832Z,2.70
2022-10-09T20:01:11.576Z,3.30
2022-10-09T20:03:41.452Z,3.80
2022-10-09T20:06:10.562Z,3.10
2022-10-09T20:08:41.224Z,3.40
2022-10-09T20:11:11.524Z,3.80
2022-10-09T20:13:41.501Z,4.30
2022-10-09T20:16:12.582Z,3.93
2022-10-09T20:18:42.329Z,3.10
2022-10-09T20:21:12.371Z,3.47
2022-10-09T20:23:44.247Z,4.27
2022-10-09T20:26:14.863Z,3.90
2022-10-09T20:28:43.278Z,3.60
2022-10-09T20:31:14.765Z,3.13
2022-10-09T20:33:43.974Z,2.80
2022-10-09T20:36:19.876Z,3.20
2022-10-09T20:38:49.472Z,3.80
2022-10-09T20:41:17.808Z,3.97
2022-10-09T20:43:46.584Z,4.30
2022-10-09T20:46:15.822Z,3.73
2022-10-09T20:48:45.058Z,3.67
2022-10-09T20:51:13.241Z,3.20
2022-10-09T20:53:41.416Z,2.80
2022-10-09T20:56:14.429Z,2.70
2022-10-09T20:58:43.037Z,2.00
2022-10-09T21:01:14.077Z,2.67
2022-10-09T21:03:42.186Z,2.70
2022-10-09T21:06:13.372Z,2.23
2022-10-09T21:08:41.892Z,3.07
2022-10-09T21:11:13.562Z,2.30
2022-10-09T21:13:41.754Z,2.47
2022-10-09T21:16:11.863Z,2.70
2022-10-09T21:18:40.419Z,2.23
2022-10-09T21:21:10.941Z,3.23
2022-10-09T21:23:39.276Z,3.47
2022-10-09T21:26:13.514Z,2.70
2022-10-09T21:28:41.736Z,2.63
2022-10-09T21:31:10.635Z,2.27
2022-10-09T21:33:38.979Z,2.97
2022-10-09T21:36:11.500Z,2.77
2022-10-09T21:38:39.848Z,2.37
2022-10-09T21:41:07.996Z,2.43
2022-10-09T21:43:37.654Z,3.43
2022-10-09T21:46:05.970Z,2.73
2022-10-09T21:48:34.150Z,3.17
2022-10-09T21:51:02.324Z,3.17
2022-10-09T21:53:30.639Z,3.63
2022-10-09T21:55:59.156Z,3.50
2022-10-09T21:58:27.378Z,3.10
2022-10-09T22:01:02.112Z,3.60
2022-10-09T22:03:32.593Z,3.13
2022-10-09T22:06:01.227Z,2.60
2022-10-09T22:08:29.371Z,3.50
2022-10-09T22:10:57.525Z,3.10
2022-10-09T22:13:25.912Z,3.00
2022-10-09T22:15:54.125Z,3.47
2022-10-09T22:18:23.820Z,3.93
2022-10-09T22:20:52.935Z,3.20
2022-10-09T22:23:22.154Z,4.67
2022-10-09T22:25:58.059Z,3.50
2022-10-09T22:28:26.446Z,3.70
2022-10-09T22:31:06.059Z,3.60
2022-10-09T22:33:37.313Z,3.30
2022-10-09T22:36:10.311Z,3.50
2022-10-09T22:38:39.142Z,3.23
2022-10-09T22:41:09.903Z,3.30
2022-10-09T22:43:39.693Z,3.50
2022-10-09T22:46:09.670Z,3.50
2022-10-09T22:48:39.704Z,2.83
2022-10-09T22:51:10.471Z,2.80
2022-10-09T22:53:39.620Z,3.30
2022-10-09T22:56:08.539Z,3.30
2022-10-09T22:58:36.776Z,3.83
2022-10-09T23:01:07.141Z,2.93
2022-10-09T23:03:35.743Z,3.40
2022-10-09T23:06:10.637Z,2.93
2022-10-09T23:08:40.121Z,2.93
2022-10-09T23:11:09.570Z,3.97
2022-10-09T23:13:38.640Z,3.63
2022-10-09T23:16:09.385Z,3.77
2022-10-09T23:18:38.738Z,4.37
2022-10-09T23:21:10.876Z,3.27
2022-10-09T23:23:38.978Z,3.80
2022-10-09T23:26:08.496Z,3.30
2022-10-09T23:28:37.106Z,3.47
2022-10-09T23:31:06.374Z,3.50
2022-10-09T23:33:35.547Z,2.90
2022-10-09T23:36:04.279Z,2.73
2022-10-09T23:38:34.204Z,3.00
2022-10-09T23:41:04.295Z,3.13
2022-10-09T23:43:34.775Z,4.00
2022-10-09T23:46:04.817Z,3.10
2022-10-09T23:48:33.399Z,3.10
2022-10-09T23:51:04.216Z,2.90
2022-10-09T23:53:35.063Z,3.20
2022-10-09T23:56:06.096Z,3.37
2022-10-09T23:58:34.279Z,3.73
